createdAt,value
2023-02-27T00:00:05.324Z,75.45
2023-02-27T00:02:34.508Z,74.86
2023-02-27T00:05:02.872Z,74.87
2023-02-27T00:07:32.277Z,74.86
2023-02-27T00:10:00.855Z,74.70
2023-02-27T00:12:30.842Z,74.58
2023-02-27T00:14:59.364Z,74.31
2023-02-27T00:17:29.879Z,73.65
2023-02-27T00:19:58.341Z,74.30
2023-02-27T00:22:27.062Z,73.88
2023-02-27T00:24:55.483Z,74.07
2023-02-27T00:27:23.970Z,74.19
2023-02-27T00:29:52.432Z,73.98
2023-02-27T00:32:21.202Z,74.50
2023-02-27T00:34:51.440Z,74.16
2023-02-27T00:37:21.366Z,73.94
2023-02-27T00:39:50.436Z,73.86
2023-02-27T00:42:19.282Z,73.87
2023-02-27T00:44:48.035Z,73.69
2023-02-27T00:47:16.378Z,73.42
2023-02-27T00:49:44.867Z,73.17
2023-02-27T00:52:15.126Z,73.18
2023-02-27T00:54:43.414Z,72.62
2023-02-27T00:57:11.942Z,72.33
2023-02-27T00:59:43.609Z,72.60
2023-02-27T01:02:15.241Z,72.55
2023-02-27T01:04:44.898Z,72.80
2023-02-27T01:07:14.736Z,72.96
2023-02-27T01:09:43.222Z,72.84
2023-02-27T01:12:13.477Z,72.75
2023-02-27T01:14:43.911Z,72.74
2023-02-27T01:17:12.438Z,72.95
2023-02-27T01:19:42.718Z,72.99
2023-02-27T01:22:11.744Z,73.11
2023-02-27T01:24:41.762Z,73.48
2023-02-27T01:27:11.379Z,73.16
2023-02-27T01:29:40.179Z,72.97
2023-02-27T01:32:08.818Z,73.42
2023-02-27T01:34:37.514Z,73.66
2023-02-27T01:37:05.824Z,73.68
2023-02-27T01:39:34.348Z,74.20
2023-02-27T01:42:05.070Z,73.60
2023-02-27T01:45:03.499Z,74.02
2023-02-27T01:47:33.866Z,74.66
2023-02-27T01:50:03.076Z,74.24
2023-02-27T01:52:33.141Z,74.30
2023-02-27T01:55:02.231Z,74.22
2023-02-27T01:57:33.834Z,74.54
2023-02-27T02:00:02.432Z,74.51
2023-02-27T02:02:44.194Z,74.87
2023-02-27T02:05:16.441Z,74.90
2023-02-27T02:07:45.254Z,75.09
2023-02-27T02:10:14.374Z,74.53
2023-02-27T02:12:45.517Z,74.83
2023-02-27T02:15:14.793Z,74.95
2023-02-27T02:17:48.506Z,74.60
2023-02-27T02:21:06.651Z,74.81
2023-02-27T02:24:04.745Z,75.14
2023-02-27T02:26:41.432Z,75.06
2023-02-27T02:29:44.940Z,74.76
2023-02-27T02:32:52.925Z,74.74
2023-02-27T02:35:55.178Z,74.75
2023-02-27T02:39:00.379Z,74.67
2023-02-27T02:41:38.817Z,74.48
2023-02-27T02:44:16.809Z,75.03
2023-02-27T02:46:50.479Z,75.03
2023-02-27T02:49:26.526Z,75.39
2023-02-27T02:52:00.841Z,75.14
2023-02-27T02:54:35.432Z,75.01
2023-02-27T02:57:11.612Z,74.83
2023-02-27T02:59:46.192Z,75.01
2023-02-27T03:02:17.605Z,75.06
2023-02-27T03:04:53.913Z,75.21
2023-02-27T03:07:26.516Z,75.17
2023-02-27T03:09:59.852Z,75.50
2023-02-27T03:12:30.217Z,75.13
2023-02-27T03:15:03.997Z,75.44
2023-02-27T03:17:44.147Z,75.19
2023-02-27T03:20:16.396Z,75.35
2023-02-27T03:22:47.692Z,75.43
2023-02-27T03:25:18.409Z,75.49
2023-02-27T03:27:51.826Z,75.80
2023-02-27T03:30:25.335Z,75.46
2023-02-27T03:32:57.423Z,76.07
2023-02-27T03:35:33.952Z,75.96
2023-02-27T03:38:07.966Z,76.24
2023-02-27T03:40:43.135Z,76.13
2023-02-27T03:43:20.025Z,76.03
2023-02-27T03:45:58.206Z,75.94
2023-02-27T03:48:29.249Z,76.04
2023-02-27T03:50:58.127Z,76.37
2023-02-27T03:53:31.694Z,76.54
2023-02-27T03:56:02.718Z,76.15
2023-02-27T03:58:31.649Z,76.41
2023-02-27T04:01:00.535Z,76.28
2023-02-27T04:03:29.168Z,76.40
2023-02-27T04:06:18.788Z,76.54
2023-02-27T04:08:55.324Z,76.57
2023-02-27T04:11:37.188Z,76.35
2023-02-27T04:14:33.223Z,76.45
2023-02-27T04:17:20.470Z,76.27
2023-02-27T04:20:17.693Z,76.50
2023-02-27T04:22:49.806Z,76.31
2023-02-27T04:25:28.208Z,76.51
2023-02-27T04:28:04.827Z,76.47
2023-02-27T04:30:39.289Z,76.45
2023-02-27T04:33:11.130Z,76.63
2023-02-27T04:35:45.187Z,76.42
2023-02-27T04:38:20.674Z,76.23
2023-02-27T04:40:52.092Z,76.53
2023-02-27T04:43:23.050Z,76.72
2023-02-27T04:45:51.958Z,76.29
2023-02-27T04:48:23.630Z,76.80
2023-02-27T04:50:55.086Z,76.91
2023-02-27T04:53:27.288Z,77.08
2023-02-27T04:55:58.618Z,77.15
2023-02-27T04:58:31.233Z,77.18
2023-02-27T05:01:03.826Z,76.99
2023-02-27T05:03:37.120Z,77.04
2023-02-27T05:06:08.193Z,77.10
2023-02-27T05:08:38.416Z,76.98
2023-02-27T05:11:11.026Z,77.41
2023-02-27T05:13:43.676Z,77.22
2023-02-27T05:16:18.685Z,77.16
2023-02-27T05:18:47.426Z,77.23
2023-02-27T05:21:24.826Z,77.64
2023-02-27T05:24:02.388Z,76.90
2023-02-27T05:26:57.540Z,77.33
2023-02-27T05:29:33.698Z,77.32
2023-02-27T05:32:07.331Z,77.22
2023-02-27T05:34:39.297Z,77.75
2023-02-27T05:37:12.826Z,77.30
2023-02-27T05:39:42.537Z,77.31
2023-02-27T05:42:13.902Z,77.58
2023-02-27T05:44:46.035Z,77.29
2023-02-27T05:47:18.517Z,76.99
2023-02-27T05:49:49.210Z,77.04
2023-02-27T05:52:20.932Z,77.00
2023-02-27T05:54:51.868Z,76.55
2023-02-27T05:57:35.105Z,76.82
2023-02-27T06:00:10.616Z,77.07
2023-02-27T06:02:42.673Z,76.98
2023-02-27T06:05:15.081Z,76.70
2023-02-27T06:07:44.740Z,76.71
2023-02-27T06:10:14.740Z,76.64
2023-02-27T06:12:43.599Z,76.46
2023-02-27T06:15:15.217Z,76.92
2023-02-27T06:17:43.906Z,76.94
2023-02-27T06:20:13.961Z,76.64
2023-02-27T06:22:42.465Z,76.14
2023-02-27T06:25:11.604Z,76.24
2023-02-27T06:27:40.739Z,76.06
2023-02-27T06:30:12.066Z,75.91
2023-02-27T06:32:42.023Z,76.07
2023-02-27T06:35:13.186Z,75.57
2023-02-27T06:37:41.769Z,75.89
2023-02-27T06:40:14.743Z,76.28
2023-02-27T06:42:44.982Z,76.02
2023-02-27T06:45:14.714Z,76.22
2023-02-27T06:47:45.213Z,76.04
2023-02-27T06:50:14.837Z,76.50
2023-02-27T06:52:45.878Z,76.33
2023-02-27T06:55:20.545Z,76.00
2023-02-27T06:57:49.022Z,76.28
2023-02-27T07:00:18.225Z,75.89
2023-02-27T07:02:51.230Z,76.39
2023-02-27T07:05:21.420Z,76.30
2023-02-27T07:07:52.984Z,76.48
2023-02-27T07:10:21.849Z,75.83
2023-02-27T07:12:50.843Z,76.22
2023-02-27T07:15:19.510Z,75.89
2023-02-27T07:17:49.305Z,75.95
2023-02-27T07:20:17.825Z,76.11
2023-02-27T07:22:46.919Z,76.37
2023-02-27T07:25:15.544Z,76.07
2023-02-27T07:27:46.201Z,76.05
2023-02-27T07:30:18.614Z,76.10
2023-02-27T07:32:51.012Z,75.38
2023-02-27T07:35:19.900Z,75.74
2023-02-27T07:37:49.339Z,75.31
2023-02-27T07:40:18.280Z,75.31
2023-02-27T07:42:48.641Z,76.04
2023-02-27T07:45:20.005Z,75.70
2023-02-27T07:47:50.286Z,75.38
2023-02-27T07:50:18.850Z,75.21
2023-02-27T07:52:47.437Z,75.06
2023-02-27T07:55:15.934Z,75.45
2023-02-27T07:57:46.063Z,75.27
2023-02-27T08:00:15.007Z,74.78
2023-02-27T08:02:43.650Z,74.43
2023-02-27T08:05:13.509Z,73.98
2023-02-27T08:07:42.945Z,74.08
2023-02-27T08:10:12.913Z,74.34
2023-02-27T08:12:41.728Z,74.64
2023-02-27T08:15:12.952Z,74.16
2023-02-27T08:17:44.207Z,74.32
2023-02-27T08:20:14.802Z,74.44
2023-02-27T08:22:46.892Z,74.17
2023-02-27T08:25:24.431Z,74.26
2023-02-27T08:27:53.959Z,73.92
2023-02-27T08:30:23.720Z,73.69
2023-02-27T08:32:52.802Z,72.93
2023-02-27T08:35:24.461Z,73.51
2023-02-27T08:37:53.014Z,72.74
2023-02-27T08:40:22.802Z,72.83
2023-02-27T08:42:55.168Z,72.56
2023-02-27T08:45:23.993Z,72.53
2023-02-27T08:47:54.476Z,72.99
2023-02-27T08:50:24.483Z,72.43
2023-02-27T08:52:53.117Z,72.27
2023-02-27T08:55:22.069Z,72.80
2023-02-27T08:57:50.843Z,72.22
2023-02-27T09:00:20.552Z,72.09
2023-02-27T09:02:49.842Z,71.84
2023-02-27T09:05:18.521Z,72.52
2023-02-27T09:07:50.654Z,72.54
2023-02-27T09:10:22.768Z,71.80
2023-02-27T09:12:51.523Z,71.62
2023-02-27T09:15:20.795Z,71.40
2023-02-27T09:17:51.152Z,71.24
2023-02-27T09:20:19.917Z,71.08
2023-02-27T09:22:50.285Z,71.06
2023-02-27T09:25:19.435Z,71.20
2023-02-27T09:27:48.046Z,71.70
2023-02-27T09:30:17.042Z,71.17
2023-02-27T09:32:45.453Z,71.29
2023-02-27T09:35:16.241Z,71.26
2023-02-27T09:37:47.061Z,71.45
2023-02-27T09:40:22.490Z,71.02
2023-02-27T09:42:51.285Z,71.32
2023-02-27T09:45:24.834Z,70.13
2023-02-27T09:47:55.664Z,70.17
2023-02-27T09:50:33.920Z,69.21
2023-02-27T09:53:04.246Z,68.47
2023-02-27T09:55:37.319Z,68.45
2023-02-27T09:58:09.017Z,68.21
2023-02-27T10:00:46.909Z,68.63
2023-02-27T10:03:32.668Z,68.51
2023-02-27T10:06:14.848Z,68.23
2023-02-27T10:08:47.685Z,68.07
2023-02-27T10:11:23.813Z,67.58
2023-02-27T10:13:59.897Z,66.77
2023-02-27T10:16:29.790Z,67.32
2023-02-27T10:19:01.090Z,66.55
2023-02-27T10:21:37.378Z,67.11
2023-02-27T10:24:22.044Z,67.39
2023-02-27T10:26:54.797Z,67.03
2023-02-27T10:29:29.499Z,67.17
2023-02-27T10:32:02.864Z,67.61
2023-02-27T10:34:32.819Z,66.63
2023-02-27T10:37:04.439Z,66.45
2023-02-27T10:39:47.927Z,66.77
2023-02-27T10:42:18.821Z,67.21
2023-02-27T10:44:53.604Z,67.48
2023-02-27T10:47:27.416Z,67.46
2023-02-27T10:49:56.307Z,68.01
2023-02-27T10:52:25.040Z,68.09
2023-02-27T10:54:56.684Z,69.67
2023-02-27T10:57:33.345Z,71.59
2023-02-27T11:00:35.241Z,71.56
2023-02-27T11:03:07.534Z,73.04
2023-02-27T11:05:39.156Z,75.22
2023-02-27T11:08:21.768Z,75.20
2023-02-27T11:10:59.429Z,76.45
2023-02-27T11:13:31.652Z,76.64
2023-02-27T11:16:12.565Z,76.69
2023-02-27T11:18:42.128Z,77.44
2023-02-27T11:21:20.583Z,77.41
2023-02-27T11:23:54.809Z,77.34
2023-02-27T11:26:27.386Z,76.46
2023-02-27T11:29:08.859Z,75.95
2023-02-27T11:31:38.131Z,75.98
2023-02-27T11:34:08.341Z,76.09
2023-02-27T11:36:44.941Z,75.31
2023-02-27T11:39:24.963Z,75.04
2023-02-27T11:41:53.824Z,73.93
2023-02-27T11:44:38.694Z,72.45
2023-02-27T11:47:24.324Z,72.84
2023-02-27T11:50:11.568Z,71.19
2023-02-27T11:52:46.918Z,69.41
2023-02-27T11:55:19.708Z,68.18
2023-02-27T11:57:54.679Z,67.64
2023-02-27T12:00:28.978Z,66.76
2023-02-27T12:03:01.627Z,66.18
2023-02-27T12:05:32.842Z,66.66
2023-02-27T12:08:07.303Z,65.75
2023-02-27T12:10:45.796Z,66.05
2023-02-27T12:13:18.766Z,65.49
2023-02-27T12:15:58.081Z,65.20
2023-02-27T12:18:30.993Z,66.04
2023-02-27T12:21:02.920Z,67.46
2023-02-27T12:23:35.947Z,68.59
2023-02-27T12:26:09.833Z,68.82
2023-02-27T12:28:47.345Z,68.74
2023-02-27T12:31:42.329Z,69.01
2023-02-27T12:34:22.112Z,68.69
2023-02-27T12:37:00.613Z,68.98
2023-02-27T12:39:30.009Z,68.34
2023-02-27T12:42:39.311Z,68.17
2023-02-27T12:45:42.604Z,68.62
2023-02-27T12:48:23.137Z,69.00
2023-02-27T12:50:57.793Z,68.32
2023-02-27T12:53:42.761Z,69.19
2023-02-27T12:56:20.633Z,69.40
2023-02-27T12:58:55.999Z,68.24
2023-02-27T13:01:40.883Z,68.59
2023-02-27T13:04:20.344Z,68.11
2023-02-27T13:06:53.618Z,68.20
2023-02-27T13:09:27.028Z,68.59
2023-02-27T13:12:00.041Z,68.40
2023-02-27T13:14:35.342Z,69.04
2023-02-27T13:17:06.934Z,69.30
2023-02-27T13:19:42.873Z,69.41
2023-02-27T13:22:19.646Z,70.03
2023-02-27T13:24:52.597Z,69.61
2023-02-27T13:27:24.191Z,69.53
2023-02-27T13:30:02.552Z,69.70
2023-02-27T13:32:44.090Z,70.20
2023-02-27T13:35:36.259Z,70.65
2023-02-27T13:38:26.989Z,70.98
2023-02-27T13:40:55.734Z,71.22
2023-02-27T13:43:43.405Z,71.89
2023-02-27T13:46:23.879Z,72.16
2023-02-27T13:48:54.596Z,72.05
2023-02-27T13:51:46.727Z,72.69
2023-02-27T13:54:27.609Z,72.51
2023-02-27T13:57:19.239Z,71.17
2023-02-27T13:59:57.523Z,70.51
2023-02-27T14:02:58.324Z,70.60
2023-02-27T14:05:33.427Z,69.98
2023-02-27T14:08:08.397Z,69.67
2023-02-27T14:10:38.394Z,69.90
2023-02-27T14:13:23.014Z,70.16
2023-02-27T14:15:57.626Z,70.02
2023-02-27T14:18:55.460Z,69.58
2023-02-27T14:21:57.202Z,70.21
2023-02-27T14:24:30.437Z,70.12
2023-02-27T14:27:02.368Z,70.06
2023-02-27T14:29:33.846Z,70.13
2023-02-27T14:32:08.229Z,70.30
2023-02-27T14:34:37.930Z,70.82
2023-02-27T14:37:08.477Z,71.02
2023-02-27T14:39:39.772Z,71.63
2023-02-27T14:42:39.427Z,71.29
2023-02-27T14:45:14.861Z,71.67
2023-02-27T14:47:44.149Z,71.75
2023-02-27T14:50:24.832Z,72.05
2023-02-27T14:52:56.154Z,72.14
2023-02-27T14:55:29.854Z,71.92
2023-02-27T14:58:01.031Z,72.23
2023-02-27T15:00:36.193Z,72.33
2023-02-27T15:03:20.081Z,72.66
2023-02-27T15:05:49.338Z,72.73
2023-02-27T15:08:20.775Z,72.56
2023-02-27T15:10:51.598Z,72.56
2023-02-27T15:13:27.425Z,80.64
2023-02-27T15:16:22.605Z,73.16
2023-02-27T15:18:53.057Z,72.95
2023-02-27T15:21:23.081Z,72.94
2023-02-27T15:23:59.278Z,72.60
2023-02-27T15:26:33.970Z,72.43
2023-02-27T15:29:03.071Z,72.47
2023-02-27T15:31:34.351Z,72.74
2023-02-27T15:34:04.075Z,72.74
2023-02-27T15:36:36.466Z,72.64
2023-02-27T15:39:16.142Z,72.51
2023-02-27T15:41:48.794Z,72.48
2023-02-27T15:44:21.325Z,72.64
2023-02-27T15:46:50.129Z,72.39
2023-02-27T15:49:26.901Z,72.35
2023-02-27T15:52:16.526Z,72.71
2023-02-27T15:54:49.714Z,72.63
2023-02-27T15:57:24.049Z,72.85
2023-02-27T15:59:55.802Z,72.82
2023-02-27T16:02:29.329Z,73.14
2023-02-27T16:05:13.300Z,73.19
2023-02-27T16:07:43.984Z,72.89
2023-02-27T16:10:20.500Z,73.45
2023-02-27T16:12:51.177Z,73.46
2023-02-27T16:15:29.810Z,73.53
2023-02-27T16:18:01.543Z,73.60
2023-02-27T16:20:39.948Z,73.68
2023-02-27T16:23:21.544Z,73.50
2023-02-27T16:26:21.259Z,73.57
2023-02-27T16:28:56.262Z,73.52
2023-02-27T16:31:27.713Z,73.43
2023-02-27T16:34:00.937Z,73.57
2023-02-27T16:36:32.675Z,73.59
2023-02-27T16:39:01.242Z,73.94
2023-02-27T16:41:29.908Z,74.33
2023-02-27T16:44:00.235Z,73.95
2023-02-27T16:46:28.860Z,74.25
2023-02-27T16:49:04.555Z,74.29
2023-02-27T16:51:39.317Z,74.10
2023-02-27T16:54:11.291Z,73.84
2023-02-27T16:56:40.900Z,74.04
2023-02-27T16:59:29.857Z,74.06
2023-02-27T17:02:02.233Z,74.29
2023-02-27T17:04:30.919Z,74.60
2023-02-27T17:07:00.950Z,74.23
2023-02-27T17:09:32.126Z,73.62
2023-02-27T17:12:02.024Z,73.04
2023-02-27T17:14:33.046Z,72.50
2023-02-27T17:17:02.005Z,72.64
2023-02-27T17:19:30.849Z,72.64
2023-02-27T17:22:00.627Z,71.93
2023-02-27T17:24:29.065Z,71.31
2023-02-27T17:26:57.688Z,70.03
2023-02-27T17:29:26.860Z,69.12
2023-02-27T17:31:58.600Z,69.06
2023-02-27T17:34:27.441Z,69.60
2023-02-27T17:36:55.849Z,69.77
2023-02-27T17:39:24.395Z,70.68
2023-02-27T17:41:54.571Z,70.54
2023-02-27T17:44:23.392Z,100.00
2023-02-27T17:46:52.315Z,100.00
2023-02-27T17:49:22.477Z,100.00
2023-02-27T17:51:54.420Z,100.00
2023-02-27T17:54:23.201Z,100.00
2023-02-27T17:56:54.546Z,100.00
2023-02-27T17:59:23.186Z,100.00
2023-02-27T18:01:55.489Z,100.00
2023-02-27T18:04:27.787Z,100.00
2023-02-27T18:06:56.360Z,100.00
2023-02-27T18:09:25.243Z,100.00
2023-02-27T18:11:53.957Z,100.00
2023-02-27T18:14:22.491Z,100.00
2023-02-27T18:16:51.478Z,100.00
2023-02-27T18:19:20.119Z,100.00
2023-02-27T18:21:50.394Z,100.00
2023-02-27T18:24:18.885Z,100.00
2023-02-27T18:26:49.869Z,100.00
2023-02-27T18:29:19.194Z,100.00
2023-02-27T18:31:53.892Z,100.00
2023-02-27T18:34:22.845Z,100.00
2023-02-27T18:36:53.931Z,100.00
2023-02-27T18:39:27.015Z,100.00
2023-02-27T18:41:56.013Z,100.00
2023-02-27T18:44:27.490Z,100.00
2023-02-27T18:47:02.832Z,100.00
2023-02-27T18:49:31.924Z,100.00
2023-02-27T18:52:06.308Z,100.00
2023-02-27T18:54:38.530Z,100.00
2023-02-27T18:57:10.059Z,100.00
2023-02-27T18:59:41.685Z,100.00
2023-02-27T19:02:17.776Z,100.00
2023-02-27T19:04:47.950Z,100.00
2023-02-27T19:07:26.510Z,100.00
2023-02-27T19:10:01.304Z,100.00
2023-02-27T19:12:33.301Z,100.00
2023-02-27T19:15:07.004Z,100.00
2023-02-27T19:18:08.188Z,100.00
2023-02-27T19:20:38.319Z,100.00
2023-02-27T19:23:08.619Z,100.00
2023-02-27T19:25:37.148Z,100.00
2023-02-27T19:28:10.214Z,100.00
2023-02-27T19:30:41.373Z,100.00
2023-02-27T19:33:10.254Z,100.00
2023-02-27T19:35:43.719Z,100.00
2023-02-27T19:38:14.745Z,100.00
2023-02-27T19:40:46.548Z,100.00
2023-02-27T19:43:15.522Z,100.00
2023-02-27T19:45:44.037Z,100.00
2023-02-27T19:48:19.196Z,100.00
2023-02-27T19:50:52.261Z,100.00
2023-02-27T19:53:22.847Z,100.00
2023-02-27T19:55:59.847Z,100.00
2023-02-27T19:58:30.046Z,100.00
2023-02-27T20:01:01.018Z,100.00
2023-02-27T20:03:30.512Z,100.00
2023-02-27T20:06:00.676Z,100.00
2023-02-27T20:08:34.323Z,100.00
2023-02-27T20:11:06.193Z,100.00
2023-02-27T20:13:36.421Z,100.00
2023-02-27T20:16:06.339Z,100.00
2023-02-27T20:18:36.083Z,100.00
2023-02-27T20:21:07.442Z,100.00
2023-02-27T20:23:41.938Z,100.00
2023-02-27T20:26:22.231Z,100.00
2023-02-27T20:28:52.266Z,100.00
2023-02-27T20:31:22.255Z,100.00
2023-02-27T20:33:51.505Z,100.00
2023-02-27T20:36:20.166Z,100.00
2023-02-27T20:40:11.820Z,82.88
2023-02-27T20:42:42.771Z,83.04
2023-02-27T20:45:12.941Z,83.47
2023-02-27T20:47:44.187Z,83.13
2023-02-27T20:50:13.640Z,83.61
2023-02-27T20:52:42.026Z,83.54
2023-02-27T20:55:12.469Z,83.61
2023-02-27T20:57:41.806Z,84.08
2023-02-27T21:00:12.378Z,84.07
2023-02-27T21:02:41.009Z,84.44
2023-02-27T21:05:10.159Z,84.29
2023-02-27T21:07:39.682Z,84.23
2023-02-27T21:10:08.714Z,84.55
2023-02-27T21:12:39.395Z,84.83
2023-02-27T21:15:08.774Z,84.92
2023-02-27T21:17:37.136Z,84.92
2023-02-27T21:20:06.944Z,84.31
2023-02-27T21:22:36.244Z,85.17
2023-02-27T21:25:06.865Z,85.17
2023-02-27T21:27:35.252Z,85.24
2023-02-27T21:30:06.460Z,85.65
2023-02-27T21:32:35.395Z,85.50
2023-02-27T21:35:03.969Z,85.17
2023-02-27T21:37:32.826Z,85.28
2023-02-27T21:40:04.508Z,85.50
2023-02-27T21:42:33.277Z,85.56
2023-02-27T21:45:01.597Z,86.05
2023-02-27T21:47:33.713Z,86.30
2023-02-27T21:50:02.378Z,86.09
2023-02-27T21:52:33.828Z,86.12
2023-02-27T21:55:02.381Z,86.34
2023-02-27T21:57:31.870Z,86.43
2023-02-27T22:00:01.109Z,86.48
2023-02-27T22:02:35.367Z,86.54
2023-02-27T22:05:03.947Z,86.84
2023-02-27T22:07:32.395Z,86.62
2023-02-27T22:10:03.332Z,86.86
2023-02-27T22:12:32.107Z,86.82
2023-02-27T22:15:00.513Z,87.00
2023-02-27T22:17:28.987Z,87.12
2023-02-27T22:19:59.063Z,86.29
2023-02-27T22:22:27.883Z,86.99
2023-02-27T22:24:56.640Z,87.39
2023-02-27T22:27:25.414Z,87.14
2023-02-27T22:29:54.245Z,86.65
2023-02-27T22:32:23.189Z,86.63
2023-02-27T22:34:52.641Z,86.44
2023-02-27T22:37:23.643Z,87.04
2023-02-27T22:39:52.476Z,87.21
2023-02-27T22:42:20.771Z,87.20
2023-02-27T22:44:49.514Z,87.10
2023-02-27T22:47:18.030Z,87.25
2023-02-27T22:49:46.663Z,87.17
2023-02-27T22:52:15.229Z,87.58
2023-02-27T22:54:45.061Z,87.42
2023-02-27T22:57:13.739Z,87.86
2023-02-27T22:59:45.796Z,88.19
2023-02-27T23:02:14.331Z,87.97
2023-02-27T23:04:43.007Z,87.82
2023-02-27T23:07:11.644Z,87.72
2023-02-27T23:09:40.006Z,87.69
2023-02-27T23:12:10.171Z,87.71
2023-02-27T23:14:38.692Z,87.85
2023-02-27T23:17:07.385Z,88.16
2023-02-27T23:19:36.664Z,88.18
2023-02-27T23:22:05.404Z,87.99
2023-02-27T23:24:36.455Z,87.71
2023-02-27T23:27:19.591Z,87.79
2023-02-27T23:29:55.719Z,88.21
2023-02-27T23:32:24.778Z,87.81
2023-02-27T23:34:53.406Z,87.35
2023-02-27T23:37:21.850Z,87.91
2023-02-27T23:39:50.334Z,87.75
2023-02-27T23:42:36.449Z,88.41
2023-02-27T23:45:27.051Z,88.44
2023-02-27T23:47:57.541Z,88.30
2023-02-27T23:50:29.498Z,88.60
2023-02-27T23:53:01.936Z,88.61
2023-02-27T23:55:32.237Z,88.46
2023-02-27T23:58:01.808Z,88.87
